Charlotte, NC (28297)

2:06 AM EDT on August 30, 2014 (GMT -0400)
Charlotte-Douglas International | Change Station
CLOSE
Current Station
Airport
Location: Charlotte,
Elevation: 748 ft
Nearby Weather Stations

Elev 748 ft 35.22 °N, 80.95 °W | Updated 14 minutes ago

Partly Cloudy
Partly Cloudy
76 °F
Feels Like 76 °F
N
6
Wind Variable Wind from SE

Today
High -- | Low -- °F
--% Chance of Precip.
Yesterday
High -- | Low -- °F
Precip. -- in
6:54 AM 7:53 PM
Waxing Crescent, 19% visible
Pressure 30.15 in
Visibility 10.0 miles
Clouds Few 25000 ft
Dew Point 71 °F
Humidity 85%
Rainfall 0.00 in
Snow Depth Not available.
UV 0 out of 12
Pollen 9.00 out of 12
Ozone Good
PM2.5 Moderate
Flu Activity Not available.
METAR KCLT 300552Z 13005KT 10SM FEW250 24/22 A3018 RMK AO2 SLP209 T02440217 10283 20244 50007 $

More Conditions Fewer Conditions

Pressure 30.15 in
Visibility 10.0 miles
Clouds Few 25000 ft
Dew Point 71 °F
Humidity 85%
Rainfall 0.00 in
Snow Depth Not available.
UV 0 out of 12
Pollen 9.00 out of 12
Ozone Good
PM2.5 Moderate
Flu Activity Not available.
METAR KCLT 300552Z 13005KT 10SM FEW250 24/22 A3018 RMK AO2 SLP209 T02440217 10283 20244 50007 $

More Conditions Fewer Conditions

10-Day Weather Forecast

Almanac

Astronomy

Aug. 30, 2014 Rise Set
Actual Time 6:54 AM EDT 7:53 PM EDT
Civil Twilight 6:28 AM EDT 8:19 PM EDT
Nautical Twilight 5:57 AM EDT 8:49 PM EDT
Astronomical Twilight 5:25 AM EDT 9:21 PM EDT
Moon 11:28 AM EDT 10:38 PM EDT
Length of Visible Light 13h 50m
Length of Day
12h 58m
Tomorrow will be 2m 7s shorter.
Waxing Crescent, 19% of the Moon is Illuminated
Today
Waxing Crescent
Sep 2
First Quarter
Sep 8
Full
Sep 15
Last Quarter
Sep 24
New

Today's Extremes

State Highs State Lows

Community

WunderPhotos

Upload Photos

1,748,465 photos uploaded!

Nearby

Air Quality

  Air Quality AQ Index Pollutant
Yesterday Moderate
PM2.5
Yesterday Moderate
OZONE
Current Moderate
PM2.5
Current Good
OZONE
Saturday Moderate
OZONE
Saturday Moderate
PM2.5
Sunday Good
OZONE
Sunday Good
PM2.5
Monday Good
OZONE
Monday Good
PM2.5

Snow Depth

Station Depth Elevation
No new snow has been reported.

Earthquake Activity

City Distance Mag. Time & Date
No recent earthquake activity has been reported nearby.
Minimum magnitude displayed is 2.5.

Coastal Water Temperatures

Place Temperature
No Stations Reporting

Nearby Weather Stations